createdAt,value
2019-04-04T00:03:45.745Z,98421.55
2019-04-04T00:08:47.436Z,98416.92
2019-04-04T00:13:48.998Z,98427.03
2019-04-04T00:18:50.656Z,98433.15
2019-04-04T00:23:52.350Z,98426.63
2019-04-04T00:28:53.902Z,98422.18
2019-04-04T00:33:55.907Z,98424.22
2019-04-04T00:38:58.291Z,98408.80
2019-04-04T00:43:59.972Z,98408.44
2019-04-04T00:49:04.552Z,98408.67
2019-04-04T00:54:05.268Z,98410.23
2019-04-04T00:59:06.812Z,98429.38
2019-04-04T01:04:08.496Z,98427.33
2019-04-04T01:09:13.111Z,98432.45
2019-04-04T01:14:13.559Z,98438.13
2019-04-04T01:19:15.233Z,98440.56
2019-04-04T01:24:16.921Z,98440.02
2019-04-04T01:29:18.478Z,98447.14
2019-04-04T01:34:20.939Z,98446.88
2019-04-04T01:39:23.072Z,98451.59
2019-04-04T01:44:24.675Z,98456.95
2019-04-04T01:49:26.254Z,98459.36
2019-04-04T01:54:27.812Z,98461.67
2019-04-04T01:59:29.369Z,98480.16
2019-04-04T02:04:30.923Z,98475.31
2019-04-04T02:09:34.552Z,98471.69
2019-04-04T02:14:36.226Z,98472.19
2019-04-04T02:19:37.915Z,98483.85
2019-04-04T02:24:39.457Z,98479.30
2019-04-04T02:29:41.860Z,98493.86
2019-04-04T02:34:44.018Z,98493.48
2019-04-04T02:39:45.563Z,98499.32
2019-04-04T02:44:47.226Z,98502.02
2019-04-04T02:49:48.755Z,98510.27
2019-04-04T02:54:50.292Z,98508.39
2019-04-04T02:59:53.435Z,98506.00
2019-04-04T03:04:55.344Z,98501.36
2019-04-04T03:09:56.995Z,98495.98
2019-04-04T03:14:58.663Z,98478.66
2019-04-04T03:20:00.323Z,98473.39
2019-04-04T03:25:01.980Z,98477.70
2019-04-04T03:30:04.409Z,98468.73
2019-04-04T03:35:06.312Z,98477.70
2019-04-04T03:40:08.566Z,98481.61
2019-04-04T03:45:10.315Z,98488.27
2019-04-04T03:50:11.947Z,98482.46
2019-04-04T03:55:13.557Z,98483.41
2019-04-04T04:00:24.704Z,98480.12
2019-04-04T04:05:34.217Z,98484.29
2019-04-04T04:10:33.397Z,98479.52
2019-04-04T04:15:35.356Z,98467.09
2019-04-04T04:20:37.921Z,98481.86
2019-04-04T04:25:42.283Z,98476.13
2019-04-04T04:30:43.922Z,98473.78
2019-04-04T04:35:45.491Z,98468.94
2019-04-04T04:40:48.036Z,98468.53
2019-04-04T04:45:49.780Z,98488.52
2019-04-04T04:50:51.347Z,98476.95
2019-04-04T04:55:52.917Z,98463.23
2019-04-04T05:00:54.545Z,98469.52
2019-04-04T05:05:56.080Z,98448.00
2019-04-04T05:10:57.638Z,98461.52
2019-04-04T05:15:59.184Z,98473.08
2019-04-04T05:21:01.957Z,98463.06
2019-04-04T05:26:04.157Z,98447.16
2019-04-04T05:31:05.671Z,98452.02
2019-04-04T05:36:07.336Z,98464.62
2019-04-04T05:41:08.873Z,98469.17
2019-04-04T05:46:10.520Z,98478.32
2019-04-04T05:51:14.965Z,98468.64
2019-04-04T05:56:15.869Z,98456.83
2019-04-04T06:01:17.993Z,98459.88
2019-04-04T06:06:19.520Z,98460.34
2019-04-04T06:11:21.758Z,98464.20
2019-04-04T06:16:23.372Z,98460.85
2019-04-04T06:21:24.866Z,98460.08
2019-04-04T06:26:26.544Z,98457.66
2019-04-04T06:31:30.823Z,98444.11
2019-04-04T06:36:31.747Z,98441.69
2019-04-04T06:41:33.267Z,98448.69
2019-04-04T06:46:34.792Z,98443.12
2019-04-04T06:51:36.328Z,98438.58
2019-04-04T06:56:37.848Z,98451.21
2019-04-04T07:01:39.389Z,98443.68
2019-04-04T07:06:42.043Z,98432.16
2019-04-04T07:11:43.987Z,98441.25
2019-04-04T07:16:45.590Z,98432.87
2019-04-04T07:21:47.179Z,98434.27
2019-04-04T07:26:48.709Z,98442.98
2019-04-04T07:31:50.258Z,98447.02
2019-04-04T07:36:51.926Z,98444.15
2019-04-04T07:41:53.517Z,98445.97
2019-04-04T07:46:55.045Z,98446.19
2019-04-04T07:51:56.572Z,98433.53
2019-04-04T07:56:58.185Z,98427.49
2019-04-04T08:01:59.726Z,98430.95
2019-04-04T08:07:01.363Z,98420.36
2019-04-04T08:12:03.031Z,98415.09
2019-04-04T08:17:04.559Z,98426.94
2019-04-04T08:22:06.174Z,98424.19
2019-04-04T08:27:07.852Z,98415.63
2019-04-04T08:32:09.399Z,98417.33
2019-04-04T08:37:10.950Z,98408.25
2019-04-04T08:42:12.480Z,98405.92
2019-04-04T08:47:14.011Z,98397.84
2019-04-04T08:52:17.270Z,98394.09
2019-04-04T08:57:19.018Z,98385.31
2019-04-04T09:02:20.898Z,98391.78
2019-04-04T09:07:22.455Z,98386.13
2019-04-04T09:12:24.123Z,98377.87
2019-04-04T09:17:25.666Z,98374.81
2019-04-04T09:22:27.204Z,98374.29
2019-04-04T09:27:28.762Z,98370.64
2019-04-04T09:32:30.320Z,98365.52
2019-04-04T09:37:31.861Z,98359.98
2019-04-04T09:42:33.447Z,98357.14
2019-04-04T09:47:35.027Z,98356.26
2019-04-04T09:52:36.567Z,98348.63
2019-04-04T09:57:38.109Z,98343.67
2019-04-04T10:02:39.945Z,98342.41
2019-04-04T10:07:41.660Z,98345.89
2019-04-04T10:12:43.328Z,98348.27
2019-04-04T10:17:44.953Z,98341.19
2019-04-04T10:22:46.512Z,98335.45
2019-04-04T10:27:48.072Z,98328.19
2019-04-04T10:32:49.628Z,98330.38
2019-04-04T10:37:51.159Z,98322.70
2019-04-04T10:42:52.714Z,98298.66
2019-04-04T10:47:54.255Z,98287.28
2019-04-04T10:52:55.807Z,98281.39
2019-04-04T10:57:57.440Z,98289.25
2019-04-04T11:02:59.081Z,98289.27
2019-04-04T11:08:00.629Z,98286.59
2019-04-04T11:13:03.023Z,98282.99
2019-04-04T11:18:04.738Z,98270.65
2019-04-04T11:23:06.521Z,98266.20
2019-04-04T11:28:08.170Z,98268.13
2019-04-04T11:33:09.756Z,98267.38
2019-04-04T11:38:11.319Z,98268.83
2019-04-04T11:43:13.102Z,98274.90
2019-04-04T11:48:14.677Z,98277.55
2019-04-04T11:53:16.370Z,98273.97
2019-04-04T11:58:18.163Z,98267.14
2019-04-04T12:03:19.777Z,98266.34
2019-04-04T12:08:21.463Z,98267.78
2019-04-04T12:13:23.015Z,98263.08
2019-04-04T12:18:24.616Z,98259.98
2019-04-04T12:23:26.202Z,98258.66
2019-04-04T12:28:27.764Z,98251.14
2019-04-04T12:33:29.600Z,98237.70
2019-04-04T12:38:31.179Z,98236.19
2019-04-04T12:43:32.927Z,98235.36
2019-04-04T12:48:34.566Z,98221.33
2019-04-04T12:53:36.268Z,98215.66
2019-04-04T12:58:37.915Z,98206.95
2019-04-04T13:03:39.471Z,98199.87
2019-04-04T13:08:41.070Z,98182.00
2019-04-04T13:13:42.727Z,98168.98
2019-04-04T13:18:44.441Z,98164.52
2019-04-04T13:23:46.057Z,98157.23
2019-04-04T13:28:47.646Z,98153.94
2019-04-04T13:33:49.235Z,98144.70
2019-04-04T13:38:50.885Z,98155.80
2019-04-04T13:43:54.378Z,98140.66
2019-04-04T13:48:56.064Z,98140.59
2019-04-04T13:54:02.268Z,98147.61
2019-04-04T13:59:05.949Z,98140.75
2019-04-04T14:04:07.655Z,98150.08
2019-04-04T14:09:12.084Z,98147.82
2019-04-04T14:14:12.783Z,98154.85
2019-04-04T14:19:14.517Z,98153.31
2019-04-04T14:24:18.276Z,98149.67
2019-04-04T14:29:27.229Z,98143.08
2019-04-04T14:34:23.691Z,98140.84
2019-04-04T14:39:28.740Z,98139.34
2019-04-04T14:44:30.782Z,98131.16
2019-04-04T14:49:32.388Z,98126.55
2019-04-04T14:54:34.076Z,98131.83
2019-04-04T14:59:35.818Z,98120.63
2019-04-04T15:04:37.474Z,98124.52
2019-04-04T15:09:39.279Z,98124.44
2019-04-04T15:14:41.110Z,98124.75
2019-04-04T15:19:42.767Z,98125.42
2019-04-04T15:24:44.320Z,98130.73
2019-04-04T15:29:45.853Z,98131.20
2019-04-04T15:34:47.413Z,98125.42
2019-04-04T15:39:48.986Z,98136.98
2019-04-04T15:44:50.565Z,98142.47
2019-04-04T15:49:52.373Z,98139.91
2019-04-04T15:54:53.963Z,98141.95
2019-04-04T15:59:55.640Z,98166.15
2019-04-04T16:04:57.257Z,98171.13
2019-04-04T16:09:59.011Z,98179.27
2019-04-04T16:15:00.671Z,98179.27
2019-04-04T16:20:02.464Z,98184.89
2019-04-04T16:25:04.689Z,98188.73
2019-04-04T16:30:08.002Z,98188.47
2019-04-04T16:35:09.974Z,98184.47
2019-04-04T16:40:11.853Z,98186.59
2019-04-04T16:45:13.531Z,98195.44
2019-04-04T16:50:15.072Z,98195.44
2019-04-04T16:55:16.713Z,98198.84
2019-04-04T17:00:20.831Z,98205.44
2019-04-04T17:05:22.137Z,98208.05
2019-04-04T17:10:23.872Z,98216.81
2019-04-04T17:15:25.439Z,98218.83
2019-04-04T17:20:26.980Z,98229.84
2019-04-04T17:25:28.537Z,98241.67
2019-04-04T17:30:30.133Z,98241.67
2019-04-04T17:35:31.827Z,98247.13
2019-04-04T17:40:33.548Z,98253.98
2019-04-04T17:45:35.626Z,98247.67
2019-04-04T17:50:37.897Z,98251.69
2019-04-04T17:55:40.070Z,98247.20
2019-04-04T18:00:41.969Z,98255.80
2019-04-04T18:05:43.572Z,98252.97
2019-04-04T18:10:45.205Z,98263.13
2019-04-04T18:15:46.882Z,98268.80
2019-04-04T18:20:48.576Z,98271.55
2019-04-04T18:25:50.081Z,98266.53
2019-04-04T18:30:51.629Z,98287.41
2019-04-04T18:35:53.294Z,98286.16
2019-04-04T18:40:54.832Z,98303.66
2019-04-04T18:45:56.521Z,98308.22
2019-04-04T18:50:58.225Z,98317.21
2019-04-04T18:55:59.866Z,98327.15
2019-04-04T19:01:01.648Z,98332.16
2019-04-04T19:06:03.310Z,98347.47
2019-04-04T19:11:04.991Z,98352.12
2019-04-04T19:16:06.753Z,98362.34
2019-04-04T19:21:08.397Z,98366.27
2019-04-04T19:26:10.070Z,98378.44
2019-04-04T19:31:11.721Z,98397.56
2019-04-04T19:36:13.261Z,98410.64
2019-04-04T19:41:14.815Z,98419.83
2019-04-04T19:46:16.459Z,98443.44
2019-04-04T19:51:17.999Z,98438.55
2019-04-04T19:56:19.550Z,98443.01
2019-04-04T20:01:21.192Z,98438.00
2019-04-04T20:06:22.719Z,98453.37
2019-04-04T20:11:24.263Z,98463.77
2019-04-04T20:16:25.832Z,98470.17
2019-04-04T20:21:27.387Z,98473.84
2019-04-04T20:26:28.954Z,98472.70
2019-04-04T20:31:30.668Z,98483.56
2019-04-04T20:36:32.385Z,98485.52
2019-04-04T20:41:34.090Z,98476.27
2019-04-04T20:46:36.724Z,98475.44
2019-04-04T20:51:38.306Z,98489.94
2019-04-04T20:56:40.027Z,98487.77
2019-04-04T21:01:41.742Z,98486.93
2019-04-04T21:06:43.508Z,98497.54
2019-04-04T21:11:45.102Z,98508.42
2019-04-04T21:16:46.702Z,98515.02
2019-04-04T21:21:48.429Z,98522.89
2019-04-04T21:26:50.001Z,98529.63
2019-04-04T21:31:51.654Z,98542.42
2019-04-04T21:36:53.409Z,98570.00
2019-04-04T21:41:55.014Z,98574.86
2019-04-04T21:46:56.725Z,98583.47
2019-04-04T21:51:58.692Z,98597.87
2019-04-04T21:57:00.404Z,98601.81
2019-04-04T22:02:02.608Z,98611.84
2019-04-04T22:07:04.423Z,98614.47
2019-04-04T22:12:05.965Z,98626.23
2019-04-04T22:17:07.566Z,98625.92
2019-04-04T22:22:09.227Z,98639.17
2019-04-04T22:27:10.956Z,98642.11
2019-04-04T22:32:12.488Z,98644.30
2019-04-04T22:37:14.069Z,98656.67
2019-04-04T22:42:15.718Z,98665.67
2019-04-04T22:47:17.363Z,98666.87
2019-04-04T22:58:03.528Z,98685.43
2019-04-04T23:03:06.427Z,98700.36
2019-04-04T23:08:08.001Z,98712.17
2019-04-04T23:13:09.675Z,98733.40
2019-04-04T23:18:11.240Z,98721.08
2019-04-04T23:23:12.995Z,98714.70
2019-04-04T23:28:14.561Z,98728.83
2019-04-04T23:33:16.131Z,98726.72
2019-04-04T23:38:17.828Z,98729.12
2019-04-04T23:43:19.378Z,98738.64
2019-04-04T23:48:20.964Z,98737.33
2019-04-04T23:53:22.530Z,98737.75
2019-04-04T23:58:24.099Z,98733.24
